Time,TemperatureF,DewpointF,PressureIn,WindDirection,WindDirectionDegrees,WindSpeedMPH,WindSpeedGustMPH,Humidity,HourlyPrecipIn,Conditions,Clouds,dailyrainin,SoftwareType,DateUTC
2013-01-23 00:02:00,6.9,2.0,30.38,SSW,198,1.0,3.0,79,0.00,,,0.00,weatherlink.com 1.10,2013-01-23 06:02:00,
2013-01-23 00:17:00,6.9,2.0,30.37,South,176,2.0,4.0,79,0.00,,,0.00,weatherlink.com 1.10,2013-01-23 06:17:00,
2013-01-23 00:32:00,6.9,2.0,30.37,SSW,212,2.0,4.0,79,0.00,,,0.00,weatherlink.com 1.10,2013-01-23 06:32:00,
2013-01-23 00:47:00,6.8,2.0,30.36,SW,226,3.0,4.0,80,0.00,,,0.00,weatherlink.com 1.10,2013-01-23 06:47:00,
2013-01-23 01:02:00,6.5,2.0,30.36,SSW,207,2.0,5.0,80,0.00,,,0.00,weatherlink.com 1.10,2013-01-23 07:02:00,
2013-01-23 01:17:00,6.1,1.0,30.35,SSW,208,2.0,3.0,80,0.00,,,0.00,weatherlink.com 1.10,2013-01-23 07:17:00,
2013-01-23 01:32:00,5.5,1.0,30.35,SSW,207,1.0,3.0,81,0.00,,,0.00,weatherlink.com 1.10,2013-01-23 07:32:00,
2013-01-23 01:47:00,5.1,1.0,30.35,SSW,212,0.0,2.0,81,0.00,,,0.00,weatherlink.com 1.10,2013-01-23 07:47:00,
2013-01-23 02:02:00,4.7,0.0,30.35,WSW,239,0.0,2.0,82,0.00,,,0.00,weatherlink.com 1.10,2013-01-23 08:02:00,
2013-01-23 02:17:00,5.0,1.0,30.35,SSW,207,1.0,2.0,83,0.00,,,0.00,weatherlink.com 1.10,2013-01-23 08:17:00,
2013-01-23 02:32:00,4.9,1.0,30.36,SW,229,0.0,2.0,83,0.00,,,0.00,weatherlink.com 1.10,2013-01-23 08:32:00,
2013-01-23 02:47:00,5.4,1.0,30.36,SW,231,0.0,2.0,83,0.00,,,0.00,weatherlink.com 1.10,2013-01-23 08:47:00,
2013-01-23 03:02:00,5.2,1.0,30.36,WSW,246,0.0,1.0,83,0.00,,,0.00,weatherlink.com 1.10,2013-01-23 09:02:00,
2013-01-23 03:17:00,4.7,1.0,30.36,WSW,252,0.0,1.0,83,0.00,,,0.00,weatherlink.com 1.10,2013-01-23 09:17:00,
2013-01-23 03:32:00,4.3,0.0,30.36,West,260,0.0,1.0,83,0.00,,,0.00,weatherlink.com 1.10,2013-01-23 09:32:00,
2013-01-23 03:47:00,4.3,1.0,30.36,West,274,2.0,3.0,84,0.00,,,0.00,weatherlink.com 1.10,2013-01-23 09:47:00,
2013-01-23 04:02:00,3.2,-1.0,30.36,West,271,1.0,4.0,82,0.00,,,0.00,weatherlink.com 1.10,2013-01-23 10:02:00,
2013-01-23 04:18:00,3.0,-1.0,30.37,West,280,2.0,7.0,82,0.00,,,0.00,weatherlink.com 1.10,2013-01-23 10:18:00,
2013-01-23 04:33:00,3.0,-1.0,30.38,WNW,295,2.0,9.0,82,0.00,,,0.00,weatherlink.com 1.10,2013-01-23 10:33:00,
2013-01-23 04:48:00,2.6,-2.0,30.38,WNW,283,5.0,10.0,81,0.00,,,0.00,weatherlink.com 1.10,2013-01-23 10:48:00,
2013-01-23 05:03:00,2.2,-3.0,30.38,NW,304,4.0,9.0,79,0.00,,,0.00,weatherlink.com 1.10,2013-01-23 11:03:00,
2013-01-23 05:18:00,1.6,-4.0,30.38,WNW,283,1.0,8.0,79,0.00,,,0.00,weatherlink.com 1.10,2013-01-23 11:18:00,
2013-01-23 05:33:00,1.1,-4.0,30.40,West,276,5.0,12.0,78,0.00,,,0.00,weatherlink.com 1.10,2013-01-23 11:33:00,
2013-01-23 05:48:00,0.7,-5.0,30.41,West,278,3.0,8.0,78,0.00,,,0.00,weatherlink.com 1.10,2013-01-23 11:48:00,
2013-01-23 06:03:00,0.4,-5.0,30.42,WNW,297,6.0,11.0,77,0.00,,,0.00,weatherlink.com 1.10,2013-01-23 12:03:00,
2013-01-23 06:18:00,-0.1,-6.0,30.42,WNW,295,3.0,10.0,77,0.00,,,0.00,weatherlink.com 1.10,2013-01-23 12:18:00,
2013-01-23 06:33:00,-0.7,-6.0,30.43,NW,304,4.0,11.0,77,0.00,,,0.00,weatherlink.com 1.10,2013-01-23 12:33:00,
2013-01-23 06:48:00,-1.4,-7.0,30.44,NW,326,3.0,8.0,77,0.00,,,0.00,weatherlink.com 1.10,2013-01-23 12:48:00,
2013-01-23 07:03:00,-1.9,-7.0,30.45,NNW,343,2.0,12.0,77,0.00,,,0.00,weatherlink.com 1.10,2013-01-23 13:03:00,
2013-01-23 07:18:00,-2.2,-8.0,30.46,NW,314,9.0,10.0,76,0.00,,,0.00,weatherlink.com 1.10,2013-01-23 13:18:00,
2013-01-23 07:34:00,-2.3,-8.0,30.47,WNW,300,2.0,10.0,76,0.00,,,0.00,weatherlink.com 1.10,2013-01-23 13:34:00,
2013-01-23 07:49:00,-2.8,-9.0,30.48,NW,304,2.0,10.0,75,0.00,,,0.00,weatherlink.com 1.10,2013-01-23 13:49:00,
2013-01-23 08:04:00,-3.4,-9.0,30.49,NW,326,8.0,9.0,75,0.00,,,0.00,weatherlink.com 1.10,2013-01-23 14:04:00,
2013-01-23 08:19:00,-3.7,-10.0,30.50,North,356,4.0,11.0,75,0.00,,,0.00,weatherlink.com 1.10,2013-01-23 14:19:00,
2013-01-23 08:34:00,-3.6,-10.0,30.51,NW,318,2.0,11.0,74,0.00,,,0.00,weatherlink.com 1.10,2013-01-23 14:34:00,
2013-01-23 08:49:00,-3.5,-10.0,30.52,WNW,301,4.0,11.0,74,0.00,,,0.00,weatherlink.com 1.10,2013-01-23 14:49:00,
2013-01-23 09:04:00,-3.4,-10.0,30.53,West,280,0.0,13.0,74,0.00,,,0.00,weatherlink.com 1.10,2013-01-23 15:04:00,
2013-01-23 09:19:00,-3.3,-10.0,30.55,NE,49,3.0,12.0,74,0.00,,,0.00,weatherlink.com 1.10,2013-01-23 15:19:00,
2013-01-23 09:34:00,-3.4,-10.0,30.56,WNW,289,2.0,11.0,74,0.00,,,0.00,weatherlink.com 1.10,2013-01-23 15:34:00,
2013-01-23 09:49:00,-3.5,-10.0,30.58,WNW,290,6.0,11.0,75,0.00,,,0.00,weatherlink.com 1.10,2013-01-23 15:49:00,
2013-01-23 10:04:00,-3.3,-10.0,30.59,NE,35,1.0,12.0,73,0.00,,,0.00,weatherlink.com 1.10,2013-01-23 16:04:00,
2013-01-23 10:19:00,-3.1,-10.0,30.60,NNW,334,5.0,12.0,72,0.00,,,0.00,weatherlink.com 1.10,2013-01-23 16:19:00,
2013-01-23 10:34:00,-2.7,-10.0,30.61,North,356,5.0,10.0,71,0.00,,,0.00,weatherlink.com 1.10,2013-01-23 16:34:00,
2013-01-23 10:49:00,-2.8,-11.0,30.62,NNW,333,4.0,16.0,69,0.00,,,0.00,weatherlink.com 1.10,2013-01-23 16:49:00,
2013-01-23 11:05:00,-2.8,-10.0,30.63,NNE,23,2.0,11.0,71,0.00,,,0.00,weatherlink.com 1.10,2013-01-23 17:05:00,
2013-01-23 11:20:00,-3.0,-11.0,30.64,NNW,345,6.0,11.0,69,0.00,,,0.00,weatherlink.com 1.10,2013-01-23 17:20:00,
2013-01-23 11:35:00,-3.0,-11.0,30.65,NNW,340,5.0,15.0,68,0.00,,,0.00,weatherlink.com 1.10,2013-01-23 17:35:00,
2013-01-23 11:50:00,-2.9,-10.0,30.66,West,259,3.0,9.0,70,0.00,,,0.00,weatherlink.com 1.10,2013-01-23 17:50:00,
2013-01-23 12:05:00,-3.2,-10.0,30.66,NNW,347,6.0,11.0,71,0.00,,,0.00,weatherlink.com 1.10,2013-01-23 18:05:00,
2013-01-23 12:20:00,-3.2,-11.0,30.66,NW,324,4.0,14.0,70,0.00,,,0.00,weatherlink.com 1.10,2013-01-23 18:20:00,
2013-01-23 12:35:00,-3.3,-11.0,30.66,NNW,329,4.0,10.0,69,0.00,,,0.00,weatherlink.com 1.10,2013-01-23 18:35:00,
2013-01-23 12:50:00,-3.8,-12.0,30.67,NNW,345,4.0,15.0,67,0.00,,,0.00,weatherlink.com 1.10,2013-01-23 18:50:00,
2013-01-23 13:05:00,-4.0,-13.0,30.68,WNW,288,5.0,17.0,65,0.00,,,0.00,weatherlink.com 1.10,2013-01-23 19:05:00,
2013-01-23 13:20:00,-4.3,-13.0,30.68,North,6,7.0,13.0,66,0.00,,,0.00,weatherlink.com 1.10,2013-01-23 19:20:00,
2013-01-23 13:35:00,-4.6,-13.0,30.69,NNW,336,3.0,11.0,67,0.00,,,0.00,weatherlink.com 1.10,2013-01-23 19:35:00,
2013-01-23 13:50:00,-5.1,-15.0,30.69,North,4,12.0,17.0,63,0.00,,,0.00,weatherlink.com 1.10,2013-01-23 19:50:00,
2013-01-23 14:05:00,-4.9,-14.0,30.69,North,350,3.0,12.0,66,0.00,,,0.00,weatherlink.com 1.10,2013-01-23 20:05:00,
2013-01-23 14:20:00,-5.4,-14.0,30.70,NNW,337,3.0,12.0,66,0.00,,,0.00,weatherlink.com 1.10,2013-01-23 20:20:00,
2013-01-23 14:36:00,-6.0,-15.0,30.71,NNW,340,5.0,15.0,66,0.00,,,0.00,weatherlink.com 1.10,2013-01-23 20:36:00,
2013-01-23 14:51:00,-6.1,-15.0,30.72,WNW,288,2.0,18.0,64,0.00,,,0.00,weatherlink.com 1.10,2013-01-23 20:51:00,
2013-01-23 15:06:00,-5.9,-16.0,30.73,NW,319,6.0,13.0,63,0.00,,,0.00,weatherlink.com 1.10,2013-01-23 21:06:00,
2013-01-23 15:21:00,-6.3,-16.0,30.74,WNW,297,2.0,13.0,64,0.00,,,0.00,weatherlink.com 1.10,2013-01-23 21:21:00,
2013-01-23 15:36:00,-6.6,-16.0,30.75,North,350,4.0,10.0,64,0.00,,,0.00,weatherlink.com 1.10,2013-01-23 21:36:00,
2013-01-23 15:51:00,-7.2,-17.0,30.75,NNW,340,3.0,12.0,63,0.00,,,0.00,weatherlink.com 1.10,2013-01-23 21:51:00,
2013-01-23 16:06:00,-7.6,-17.0,30.76,NNE,20,4.0,11.0,63,0.00,,,0.00,weatherlink.com 1.10,2013-01-23 22:06:00,
2013-01-23 16:21:00,-8.2,-17.0,30.78,WSW,257,1.0,10.0,65,0.00,,,0.00,weatherlink.com 1.10,2013-01-23 22:21:00,
2013-01-23 16:36:00,-8.5,-17.0,30.79,NNW,331,1.0,8.0,65,0.00,,,0.00,weatherlink.com 1.10,2013-01-23 22:36:00,
2013-01-23 16:51:00,-9.2,-18.0,30.80,NNW,345,2.0,9.0,64,0.00,,,0.00,weatherlink.com 1.10,2013-01-23 22:51:00,
2013-01-23 17:06:00,-9.9,-20.0,30.81,North,5,6.0,16.0,62,0.00,,,0.00,weatherlink.com 1.10,2013-01-23 23:06:00,
2013-01-23 17:21:00,-10.3,-20.0,30.82,North,352,4.0,8.0,63,0.00,,,0.00,weatherlink.com 1.10,2013-01-23 23:21:00,
2013-01-23 17:36:00,-10.7,-19.0,30.81,NNW,336,1.0,7.0,65,0.00,,,0.00,weatherlink.com 1.10,2013-01-23 23:36:00,
2013-01-23 17:52:00,-11.1,-20.0,30.82,WNW,287,5.0,7.0,66,0.00,,,0.00,weatherlink.com 1.10,2013-01-23 23:52:00,
2013-01-23 18:07:00,-11.5,-20.0,30.82,NNW,328,2.0,8.0,66,0.00,,,0.00,weatherlink.com 1.10,2013-01-24 00:07:00,
2013-01-23 18:37:00,-12.4,-20.0,30.84,North,359,0.0,9.0,68,0.00,,,0.00,weatherlink.com 1.10,2013-01-24 00:37:00,
2013-01-23 18:52:00,-12.8,-20.0,30.83,North,360,0.0,3.0,69,0.00,,,0.00,weatherlink.com 1.10,2013-01-24 00:52:00,
2013-01-23 19:07:00,-13.1,-20.0,30.84,NNW,333,5.0,5.0,70,0.00,,,0.00,weatherlink.com 1.10,2013-01-24 01:07:00,
2013-01-23 19:22:00,-13.3,-20.0,30.84,NNW,340,4.0,5.0,72,0.00,,,0.00,weatherlink.com 1.10,2013-01-24 01:22:00,
2013-01-23 19:37:00,-13.5,-20.0,30.86,NE,41,0.0,4.0,71,0.00,,,0.00,weatherlink.com 1.10,2013-01-24 01:37:00,
2013-01-23 19:52:00,-13.8,-21.0,30.86,NNW,346,2.0,4.0,70,0.00,,,0.00,weatherlink.com 1.10,2013-01-24 01:52:00,
2013-01-23 20:07:00,-14.1,-21.0,30.85,NNW,339,2.0,3.0,71,0.00,,,0.00,weatherlink.com 1.10,2013-01-24 02:07:00,
2013-01-23 20:22:00,-14.3,-21.0,30.85,North,7,2.0,3.0,71,0.00,,,0.00,weatherlink.com 1.10,2013-01-24 02:22:00,
2013-01-23 20:37:00,-14.4,-21.0,30.85,North,354,1.0,5.0,73,0.00,,,0.00,weatherlink.com 1.10,2013-01-24 02:37:00,
2013-01-23 20:52:00,-14.5,-21.0,30.86,North,356,1.0,2.0,74,0.00,,,0.00,weatherlink.com 1.10,2013-01-24 02:52:00,
2013-01-23 21:07:00,-14.6,-21.0,30.86,NE,49,3.0,5.0,73,0.00,,,0.00,weatherlink.com 1.10,2013-01-24 03:07:00,
2013-01-23 21:23:00,-14.8,-22.0,30.88,NE,48,2.0,6.0,71,0.00,,,0.00,weatherlink.com 1.10,2013-01-24 03:23:00,
2013-01-23 21:38:00,-14.8,-22.0,30.88,North,5,1.0,6.0,70,0.00,,,0.00,weatherlink.com 1.10,2013-01-24 03:38:00,
2013-01-23 21:53:00,-15.0,-22.0,30.88,NNE,27,3.0,6.0,69,0.00,,,0.00,weatherlink.com 1.10,2013-01-24 03:53:00,
2013-01-23 22:08:00,-15.1,-23.0,30.88,NE,37,3.0,7.0,68,0.00,,,0.00,weatherlink.com 1.10,2013-01-24 04:08:00,
2013-01-23 22:23:00,-15.3,-23.0,30.89,NE,39,5.0,8.0,67,0.00,,,0.00,weatherlink.com 1.10,2013-01-24 04:23:00,
2013-01-23 22:38:00,-15.3,-23.0,30.89,NE,47,1.0,8.0,67,0.00,,,0.00,weatherlink.com 1.10,2013-01-24 04:38:00,
2013-01-23 22:53:00,-15.2,-23.0,30.90,NNE,13,3.0,8.0,68,0.00,,,0.00,weatherlink.com 1.10,2013-01-24 04:53:00,
2013-01-23 23:08:00,-15.3,-23.0,30.89,NE,47,6.0,7.0,68,0.00,,,0.00,weatherlink.com 1.10,2013-01-24 05:08:00,
2013-01-23 23:23:00,-15.4,-23.0,30.89,ENE,63,2.0,5.0,69,0.00,,,0.00,weatherlink.com 1.10,2013-01-24 05:23:00,
2013-01-23 23:38:00,-15.4,-23.0,30.90,NE,43,2.0,4.0,69,0.00,,,0.00,weatherlink.com 1.10,2013-01-24 05:38:00,
2013-01-23 23:53:00,-15.4,-23.0,30.90,NNE,30,2.0,3.0,69,0.00,,,0.00,weatherlink.com 1.10,2013-01-24 05:53:00,